sensor_id;sensor_type;location;lat;lon;timestamp;pressure;altitude;pressure_sealevel;temperature;humidity
30724;BME280;17473;52.286;20.930;2023-03-21T00:01:52;100109.16;;;9.93;100.00
30724;BME280;17473;52.286;20.930;2023-03-21T00:04:24;100104.16;;;9.75;100.00
30724;BME280;17473;52.286;20.930;2023-03-21T00:06:55;100109.56;;;9.78;100.00
30724;BME280;17473;52.286;20.930;2023-03-21T00:09:22;100107.03;;;9.81;100.00
30724;BME280;17473;52.286;20.930;2023-03-21T00:11:50;100110.09;;;9.67;100.00
30724;BME280;17473;52.286;20.930;2023-03-21T00:14:17;100098.56;;;9.64;100.00
30724;BME280;17473;52.286;20.930;2023-03-21T00:16:46;100096.78;;;9.64;100.00
30724;BME280;17473;52.286;20.930;2023-03-21T00:19:17;100098.28;;;9.56;100.00
30724;BME280;17473;52.286;20.930;2023-03-21T00:21:46;100101.69;;;9.52;100.00
30724;BME280;17473;52.286;20.930;2023-03-21T00:24:35;100097.41;;;9.83;100.00
30724;BME280;17473;52.286;20.930;2023-03-21T00:27:03;100100.84;;;9.53;100.00
30724;BME280;17473;52.286;20.930;2023-03-21T00:29:51;100095.50;;;9.51;100.00
30724;BME280;17473;52.286;20.930;2023-03-21T00:32:20;100096.94;;;9.69;100.00
30724;BME280;17473;52.286;20.930;2023-03-21T00:34:47;100096.44;;;9.53;100.00
30724;BME280;17473;52.286;20.930;2023-03-21T00:37:35;100090.44;;;9.58;100.00
30724;BME280;17473;52.286;20.930;2023-03-21T00:40:03;100090.66;;;9.64;100.00
30724;BME280;17473;52.286;20.930;2023-03-21T00:42:45;100095.41;;;9.48;100.00
30724;BME280;17473;52.286;20.930;2023-03-21T00:45:12;100092.69;;;9.47;100.00
30724;BME280;17473;52.286;20.930;2023-03-21T00:47:39;100100.53;;;9.44;100.00
30724;BME280;17473;52.286;20.930;2023-03-21T00:50:07;100091.47;;;9.35;100.00
30724;BME280;17473;52.286;20.930;2023-03-21T00:52:34;100090.84;;;9.43;100.00
30724;BME280;17473;52.286;20.930;2023-03-21T00:55:11;100092.50;;;9.40;100.00
30724;BME280;17473;52.286;20.930;2023-03-21T00:57:39;100092.81;;;9.50;100.00
30724;BME280;17473;52.286;20.930;2023-03-21T01:00:11;100096.66;;;9.34;100.00
30724;BME280;17473;52.286;20.930;2023-03-21T01:02:39;100094.09;;;9.35;100.00
30724;BME280;17473;52.286;20.930;2023-03-21T01:05:39;100088.00;;;9.36;100.00
30724;BME280;17473;52.286;20.930;2023-03-21T01:08:26;100092.19;;;9.31;100.00
30724;BME280;17473;52.286;20.930;2023-03-21T01:11:08;100097.06;;;9.45;100.00
30724;BME280;17473;52.286;20.930;2023-03-21T01:13:36;100097.47;;;9.31;100.00
30724;BME280;17473;52.286;20.930;2023-03-21T01:16:10;100088.16;;;9.41;100.00
30724;BME280;17473;52.286;20.930;2023-03-21T01:18:39;100089.75;;;9.37;100.00
30724;BME280;17473;52.286;20.930;2023-03-21T01:21:12;100087.84;;;9.32;100.00
30724;BME280;17473;52.286;20.930;2023-03-21T01:23:42;100078.91;;;9.28;100.00
30724;BME280;17473;52.286;20.930;2023-03-21T01:26:11;100082.75;;;9.38;100.00
30724;BME280;17473;52.286;20.930;2023-03-21T01:28:41;100077.97;;;9.26;100.00
30724;BME280;17473;52.286;20.930;2023-03-21T01:31:12;100083.41;;;9.31;100.00
30724;BME280;17473;52.286;20.930;2023-03-21T01:33:40;100076.81;;;9.18;100.00
30724;BME280;17473;52.286;20.930;2023-03-21T01:36:27;100078.81;;;9.25;100.00
30724;BME280;17473;52.286;20.930;2023-03-21T01:38:54;100076.22;;;9.27;100.00
30724;BME280;17473;52.286;20.930;2023-03-21T01:41:35;100071.13;;;9.05;100.00
30724;BME280;17473;52.286;20.930;2023-03-21T01:44:18;100075.34;;;9.00;100.00
30724;BME280;17473;52.286;20.930;2023-03-21T01:46:48;100078.72;;;8.98;100.00
30724;BME280;17473;52.286;20.930;2023-03-21T01:49:40;100079.78;;;9.27;100.00
30724;BME280;17473;52.286;20.930;2023-03-21T01:52:17;100069.09;;;9.22;100.00
30724;BME280;17473;52.286;20.930;2023-03-21T01:55:05;100068.16;;;9.22;100.00
30724;BME280;17473;52.286;20.930;2023-03-21T01:57:41;100069.00;;;9.21;100.00
30724;BME280;17473;52.286;20.930;2023-03-21T02:00:30;100071.41;;;9.13;100.00
30724;BME280;17473;52.286;20.930;2023-03-21T02:03:00;100062.41;;;9.34;100.00
30724;BME280;17473;52.286;20.930;2023-03-21T02:06:00;100059.47;;;9.24;100.00
30724;BME280;17473;52.286;20.930;2023-03-21T02:08:29;100062.22;;;9.02;100.00
30724;BME280;17473;52.286;20.930;2023-03-21T02:11:07;100065.66;;;9.25;100.00
30724;BME280;17473;52.286;20.930;2023-03-21T02:13:36;100064.53;;;9.18;100.00
30724;BME280;17473;52.286;20.930;2023-03-21T02:16:51;100061.41;;;9.04;100.00
30724;BME280;17473;52.286;20.930;2023-03-21T02:28:40;100079.19;;;9.10;100.00
30724;BME280;17473;52.286;20.930;2023-03-21T02:31:58;100072.41;;;9.17;100.00
30724;BME280;17473;52.286;20.930;2023-03-21T02:42:16;100071.75;;;8.98;100.00
30724;BME280;17473;52.286;20.930;2023-03-21T02:47:55;100072.78;;;9.03;100.00
30724;BME280;17473;52.286;20.930;2023-03-21T02:53:07;100073.75;;;9.31;100.00
30724;BME280;17473;52.286;20.930;2023-03-21T02:55:36;100075.38;;;9.28;100.00
30724;BME280;17473;52.286;20.930;2023-03-21T02:58:11;100068.59;;;9.08;100.00
30724;BME280;17473;52.286;20.930;2023-03-21T03:00:39;100079.19;;;9.10;100.00
30724;BME280;17473;52.286;20.930;2023-03-21T03:03:11;100077.91;;;9.24;100.00
30724;BME280;17473;52.286;20.930;2023-03-21T03:05:56;100075.22;;;9.23;100.00
30724;BME280;17473;52.286;20.930;2023-03-21T03:08:57;100085.16;;;9.06;100.00
30724;BME280;17473;52.286;20.930;2023-03-21T03:11:42;100091.69;;;8.91;100.00
30724;BME280;17473;52.286;20.930;2023-03-21T03:17:49;100084.53;;;8.87;100.00
30724;BME280;17473;52.286;20.930;2023-03-21T03:20:32;100085.97;;;9.03;100.00
30724;BME280;17473;52.286;20.930;2023-03-21T03:26:05;100090.09;;;8.97;100.00
30724;BME280;17473;52.286;20.930;2023-03-21T03:28:36;100096.66;;;8.84;100.00
30724;BME280;17473;52.286;20.930;2023-03-21T03:31:06;100090.22;;;9.00;100.00
30724;BME280;17473;52.286;20.930;2023-03-21T03:33:40;100078.72;;;8.98;100.00
30724;BME280;17473;52.286;20.930;2023-03-21T03:36:12;100089.72;;;8.86;100.00
30724;BME280;17473;52.286;20.930;2023-03-21T03:38:57;100092.16;;;9.04;100.00
30724;BME280;17473;52.286;20.930;2023-03-21T03:41:27;100092.81;;;8.98;100.00
30724;BME280;17473;52.286;20.930;2023-03-21T03:44:02;100089.81;;;8.87;100.00
30724;BME280;17473;52.286;20.930;2023-03-21T03:46:35;100085.22;;;8.82;100.00
30724;BME280;17473;52.286;20.930;2023-03-21T03:49:16;100097.16;;;8.98;100.00
30724;BME280;17473;52.286;20.930;2023-03-21T03:51:58;100093.44;;;8.91;100.00
30724;BME280;17473;52.286;20.930;2023-03-21T03:54:40;100098.66;;;9.15;100.00
30724;BME280;17473;52.286;20.930;2023-03-21T03:57:09;100103.72;;;8.85;100.00
30724;BME280;17473;52.286;20.930;2023-03-21T03:59:40;100095.50;;;9.00;100.00
30724;BME280;17473;52.286;20.930;2023-03-21T04:02:09;100096.13;;;8.92;100.00
30724;BME280;17473;52.286;20.930;2023-03-21T04:04:36;100095.69;;;9.06;100.00
30724;BME280;17473;52.286;20.930;2023-03-21T04:07:04;100095.66;;;9.30;100.00
30724;BME280;17473;52.286;20.930;2023-03-21T04:09:32;100099.56;;;9.16;100.00
30724;BME280;17473;52.286;20.930;2023-03-21T04:12:11;100097.75;;;9.13;100.00
30724;BME280;17473;52.286;20.930;2023-03-21T04:14:39;100088.06;;;8.88;100.00
30724;BME280;17473;52.286;20.930;2023-03-21T04:17:13;100096.34;;;8.99;100.00
30724;BME280;17473;52.286;20.930;2023-03-21T04:19:41;100090.81;;;8.91;100.00
30724;BME280;17473;52.286;20.930;2023-03-21T04:22:08;100086.56;;;8.95;100.00
30724;BME280;17473;52.286;20.930;2023-03-21T04:24:37;100098.75;;;8.92;100.00
30724;BME280;17473;52.286;20.930;2023-03-21T04:27:05;100090.09;;;8.97;100.00
30724;BME280;17473;52.286;20.930;2023-03-21T04:29:32;100093.50;;;8.92;100.00
30724;BME280;17473;52.286;20.930;2023-03-21T04:32:00;100092.81;;;8.98;100.00
30724;BME280;17473;52.286;20.930;2023-03-21T04:34:27;100094.63;;;8.99;100.00
30724;BME280;17473;52.286;20.930;2023-03-21T04:36:55;100099.97;;;9.02;100.00
30724;BME280;17473;52.286;20.930;2023-03-21T04:39:23;100093.94;;;9.05;100.00
30724;BME280;17473;52.286;20.930;2023-03-21T04:41:50;100095.94;;;9.12;100.00
30724;BME280;17473;52.286;20.930;2023-03-21T04:44:18;100102.06;;;9.11;100.00
30724;BME280;17473;52.286;20.930;2023-03-21T04:46:45;100094.53;;;8.98;100.00
30724;BME280;17473;52.286;20.930;2023-03-21T04:49:12;100094.66;;;9.01;100.00
30724;BME280;17473;52.286;20.930;2023-03-21T04:51:40;100097.09;;;8.95;100.00
30724;BME280;17473;52.286;20.930;2023-03-21T04:54:07;100098.75;;;8.92;100.00
30724;BME280;17473;52.286;20.930;2023-03-21T04:56:37;100101.28;;;8.89;100.00
30724;BME280;17473;52.286;20.930;2023-03-21T04:59:14;100105.41;;;9.07;100.00
30724;BME280;17473;52.286;20.930;2023-03-21T05:01:41;100109.84;;;9.34;100.00
30724;BME280;17473;52.286;20.930;2023-03-21T05:04:12;100109.19;;;9.15;100.00
30724;BME280;17473;52.286;20.930;2023-03-21T05:06:40;100108.03;;;9.33;100.00
30724;BME280;17473;52.286;20.930;2023-03-21T05:09:11;100103.22;;;9.19;100.00
30724;BME280;17473;52.286;20.930;2023-03-21T05:11:39;100113.94;;;9.26;100.00
30724;BME280;17473;52.286;20.930;2023-03-21T05:14:18;100113.75;;;9.19;100.00
30724;BME280;17473;52.286;20.930;2023-03-21T05:16:46;100114.41;;;9.14;100.00
30724;BME280;17473;52.286;20.930;2023-03-21T05:19:29;100116.34;;;9.18;100.00
30724;BME280;17473;52.286;20.930;2023-03-21T05:22:04;100114.41;;;9.14;100.00
30724;BME280;17473;52.286;20.930;2023-03-21T05:24:32;100118.91;;;9.16;100.00
30724;BME280;17473;52.286;20.930;2023-03-21T05:27:00;100123.75;;;9.04;100.00
30724;BME280;17473;52.286;20.930;2023-03-21T05:29:32;100117.22;;;8.94;100.00
30724;BME280;17473;52.286;20.930;2023-03-21T05:32:00;100121.63;;;8.93;100.00
30724;BME280;17473;52.286;20.930;2023-03-21T05:34:27;100116.56;;;9.00;100.00
30724;BME280;17473;52.286;20.930;2023-03-21T05:36:55;100125.88;;;9.14;100.00
30724;BME280;17473;52.286;20.930;2023-03-21T05:39:22;100127.56;;;9.38;100.00
30724;BME280;17473;52.286;20.930;2023-03-21T05:41:49;100127.81;;;9.20;100.00
30724;BME280;17473;52.286;20.930;2023-03-21T05:44:16;100125.16;;;9.20;100.00
30724;BME280;17473;52.286;20.930;2023-03-21T05:46:43;100137.34;;;9.16;100.00
30724;BME280;17473;52.286;20.930;2023-03-21T05:49:11;100134.16;;;9.01;100.00
30724;BME280;17473;52.286;20.930;2023-03-21T05:51:38;100134.16;;;9.25;100.00
30724;BME280;17473;52.286;20.930;2023-03-21T05:54:05;100138.41;;;9.21;100.00
30724;BME280;17473;52.286;20.930;2023-03-21T05:56:33;100145.88;;;9.09;100.00
30724;BME280;17473;52.286;20.930;2023-03-21T05:59:00;100147.09;;;9.19;100.00
30724;BME280;17473;52.286;20.930;2023-03-21T06:01:27;100153.13;;;9.40;99.59
30724;BME280;17473;52.286;20.930;2023-03-21T06:03:54;100153.06;;;9.13;100.00
30724;BME280;17473;52.286;20.930;2023-03-21T06:06:21;100145.19;;;9.15;100.00
30724;BME280;17473;52.286;20.930;2023-03-21T06:08:48;100151.59;;;9.21;100.00
30724;BME280;17473;52.286;20.930;2023-03-21T06:11:23;100156.91;;;9.23;100.00
30724;BME280;17473;52.286;20.930;2023-03-21T06:13:51;100156.94;;;9.24;100.00
30724;BME280;17473;52.286;20.930;2023-03-21T06:16:18;100158.97;;;9.32;99.79
30724;BME280;17473;52.286;20.930;2023-03-21T06:18:46;100160.38;;;9.22;99.65
30724;BME280;17473;52.286;20.930;2023-03-21T06:21:13;100159.53;;;9.23;100.00
30724;BME280;17473;52.286;20.930;2023-03-21T06:23:40;100166.72;;;9.27;99.40
30724;BME280;17473;52.286;20.930;2023-03-21T06:26:07;100162.22;;;9.50;99.18
30724;BME280;17473;52.286;20.930;2023-03-21T06:28:34;100168.41;;;9.51;97.60
30724;BME280;17473;52.286;20.930;2023-03-21T06:31:02;100166.94;;;9.59;97.62
30724;BME280;17473;52.286;20.930;2023-03-21T06:33:29;100165.63;;;9.46;97.57
30724;BME280;17473;52.286;20.930;2023-03-21T06:35:58;100169.22;;;9.48;97.57
30724;BME280;17473;52.286;20.930;2023-03-21T06:38:25;100174.16;;;9.39;97.97
30724;BME280;17473;52.286;20.930;2023-03-21T06:40:53;100174.00;;;9.60;97.90
30724;BME280;17473;52.286;20.930;2023-03-21T06:43:20;100175.19;;;9.70;97.31
30724;BME280;17473;52.286;20.930;2023-03-21T06:45:47;100176.13;;;9.70;97.80
30724;BME280;17473;52.286;20.930;2023-03-21T06:48:14;100176.63;;;9.86;96.83
30724;BME280;17473;52.286;20.930;2023-03-21T06:50:41;100174.25;;;9.42;97.42
30724;BME280;17473;52.286;20.930;2023-03-21T06:53:09;100176.38;;;9.52;97.29
30724;BME280;17473;52.286;20.930;2023-03-21T06:55:36;100184.69;;;9.39;97.97
30724;BME280;17473;52.286;20.930;2023-03-21T06:58:04;100186.50;;;9.40;98.64
30724;BME280;17473;52.286;20.930;2023-03-21T07:00:31;100187.09;;;9.33;98.38
30724;BME280;17473;52.286;20.930;2023-03-21T07:02:59;100189.47;;;10.02;94.46
30724;BME280;17473;52.286;20.930;2023-03-21T07:05:27;100198.53;;;9.83;93.76
30724;BME280;17473;52.286;20.930;2023-03-21T07:07:54;100198.19;;;9.48;96.10
30724;BME280;17473;52.286;20.930;2023-03-21T07:10:22;100198.41;;;9.54;96.46
30724;BME280;17473;52.286;20.930;2023-03-21T07:12:49;100193.72;;;9.46;97.41
30724;BME280;17473;52.286;20.930;2023-03-21T07:15:16;100191.22;;;9.50;96.65
30724;BME280;17473;52.286;20.930;2023-03-21T07:17:43;100193.47;;;9.64;96.52
30724;BME280;17473;52.286;20.930;2023-03-21T07:20:11;100199.00;;;9.71;95.92
30724;BME280;17473;52.286;20.930;2023-03-21T07:22:38;100204.81;;;10.14;93.91
30724;BME280;17473;52.286;20.930;2023-03-21T07:25:06;100198.75;;;10.17;92.95
30724;BME280;17473;52.286;20.930;2023-03-21T07:27:34;100200.81;;;10.00;93.70
30724;BME280;17473;52.286;20.930;2023-03-21T07:30:05;100197.84;;;10.16;93.42
30724;BME280;17473;52.286;20.930;2023-03-21T07:32:34;100203.91;;;10.14;93.59
30724;BME280;17473;52.286;20.930;2023-03-21T07:35:09;100196.28;;;10.79;89.11
30724;BME280;17473;52.286;20.930;2023-03-21T07:37:39;100200.00;;;10.56;91.24
30724;BME280;17473;52.286;20.930;2023-03-21T07:40:08;100187.38;;;10.76;89.83
30724;BME280;17473;52.286;20.930;2023-03-21T07:42:37;100194.63;;;10.83;89.20
30724;BME280;17473;52.286;20.930;2023-03-21T07:45:07;100191.16;;;11.16;87.15
30724;BME280;17473;52.286;20.930;2023-03-21T07:47:35;100197.72;;;11.29;87.33
30724;BME280;17473;52.286;20.930;2023-03-21T07:50:03;100199.03;;;11.13;87.20
30724;BME280;17473;52.286;20.930;2023-03-21T07:52:33;100195.81;;;11.23;86.80
30724;BME280;17473;52.286;20.930;2023-03-21T07:55:00;100195.66;;;11.51;85.08
30724;BME280;17473;52.286;20.930;2023-03-21T07:57:27;100203.47;;;11.46;85.06
30724;BME280;17473;52.286;20.930;2023-03-21T07:59:54;100207.44;;;11.00;85.99
30724;BME280;17473;52.286;20.930;2023-03-21T08:02:21;100210.50;;;10.83;86.83
30724;BME280;17473;52.286;20.930;2023-03-21T08:04:48;100217.66;;;10.87;87.44
30724;BME280;17473;52.286;20.930;2023-03-21T08:07:16;100211.88;;;10.70;88.58
30724;BME280;17473;52.286;20.930;2023-03-21T08:09:43;100218.97;;;10.73;88.17
30724;BME280;17473;52.286;20.930;2023-03-21T08:12:11;100213.06;;;10.80;87.82
30724;BME280;17473;52.286;20.930;2023-03-21T08:14:38;100219.31;;;10.84;87.41
30724;BME280;17473;52.286;20.930;2023-03-21T08:17:05;100218.47;;;10.85;87.33
30724;BME280;17473;52.286;20.930;2023-03-21T08:19:34;100209.78;;;10.89;86.71
30724;BME280;17473;52.286;20.930;2023-03-21T08:22:03;100216.22;;;10.99;86.31
30724;BME280;17473;52.286;20.930;2023-03-21T08:24:32;100215.28;;;11.27;84.88
30724;BME280;17473;52.286;20.930;2023-03-21T08:27:00;100217.66;;;11.18;84.80
30724;BME280;17473;52.286;20.930;2023-03-21T08:29:28;100215.28;;;11.27;84.79
30724;BME280;17473;52.286;20.930;2023-03-21T08:31:55;100213.59;;;11.63;82.73
30724;BME280;17473;52.286;20.930;2023-03-21T08:34:23;100221.03;;;12.10;80.93
30724;BME280;17473;52.286;20.930;2023-03-21T08:36:52;100225.84;;;12.26;78.93
30724;BME280;17473;52.286;20.930;2023-03-21T08:39:20;100228.72;;;12.35;78.49
30724;BME280;17473;52.286;20.930;2023-03-21T08:41:47;100222.38;;;12.29;78.57
30724;BME280;17473;52.286;20.930;2023-03-21T08:44:14;100226.19;;;12.42;77.32
30724;BME280;17473;52.286;20.930;2023-03-21T08:46:43;100233.81;;;12.28;77.72
30724;BME280;17473;52.286;20.930;2023-03-21T08:49:10;100232.22;;;12.34;77.22
30724;BME280;17473;52.286;20.930;2023-03-21T08:51:38;100235.16;;;12.10;76.87
30724;BME280;17473;52.286;20.930;2023-03-21T08:54:06;100241.28;;;12.09;77.80
30724;BME280;17473;52.286;20.930;2023-03-21T08:56:34;100248.91;;;11.97;77.30
30724;BME280;17473;52.286;20.930;2023-03-21T08:59:03;100252.69;;;12.07;77.51
30724;BME280;17473;52.286;20.930;2023-03-21T09:01:30;100249.41;;;11.83;78.63
30724;BME280;17473;52.286;20.930;2023-03-21T09:03:58;100248.53;;;11.83;78.80
30724;BME280;17473;52.286;20.930;2023-03-21T09:06:25;100257.59;;;11.93;77.81
30724;BME280;17473;52.286;20.930;2023-03-21T09:08:53;100252.22;;;12.23;76.56
30724;BME280;17473;52.286;20.930;2023-03-21T09:11:20;100249.94;;;11.70;78.04
30724;BME280;17473;52.286;20.930;2023-03-21T09:13:47;100256.56;;;11.54;79.12
30724;BME280;17473;52.286;20.930;2023-03-21T09:16:14;100250.63;;;11.63;78.93
30724;BME280;17473;52.286;20.930;2023-03-21T09:18:42;100251.25;;;11.86;78.48
30724;BME280;17473;52.286;20.930;2023-03-21T09:21:16;100262.19;;;11.98;77.44
30724;BME280;17473;52.286;20.930;2023-03-21T09:23:44;100256.47;;;11.83;79.21
30724;BME280;17473;52.286;20.930;2023-03-21T09:26:12;100261.41;;;11.70;78.78
30724;BME280;17473;52.286;20.930;2023-03-21T09:28:39;100256.94;;;11.68;79.61
30724;BME280;17473;52.286;20.930;2023-03-21T09:31:08;100266.84;;;11.75;78.43
30724;BME280;17473;52.286;20.930;2023-03-21T09:33:38;100270.59;;;11.83;78.10
30724;BME280;17473;52.286;20.930;2023-03-21T09:36:08;100271.19;;;11.73;78.28
30724;BME280;17473;52.286;20.930;2023-03-21T09:38:41;100270.91;;;11.62;79.40
30724;BME280;17473;52.286;20.930;2023-03-21T09:47:30;100272.81;;;11.68;79.03
30724;BME280;17473;52.286;20.930;2023-03-21T09:50:13;100266.19;;;11.52;79.63
30724;BME280;17473;52.286;20.930;2023-03-21T09:52:58;100268.75;;;11.49;79.38
30724;BME280;17473;52.286;20.930;2023-03-21T09:55:31;100269.22;;;11.34;79.99
30724;BME280;17473;52.286;20.930;2023-03-21T09:58:32;100268.88;;;11.21;79.31
30724;BME280;17473;52.286;20.930;2023-03-21T10:01:06;100272.88;;;11.39;79.80
30724;BME280;17473;52.286;20.930;2023-03-21T10:03:37;100272.13;;;11.12;80.27
30724;BME280;17473;52.286;20.930;2023-03-21T10:06:10;100275.28;;;11.01;82.20
30724;BME280;17473;52.286;20.930;2023-03-21T10:08:39;100281.63;;;11.06;82.84
30724;BME280;17473;52.286;20.930;2023-03-21T10:11:24;100284.91;;;10.99;83.28
30724;BME280;17473;52.286;20.930;2023-03-21T10:14:41;100279.25;;;11.15;82.91
30724;BME280;17473;52.286;20.930;2023-03-21T10:17:33;100288.88;;;10.84;84.85
30724;BME280;17473;52.286;20.930;2023-03-21T10:20:27;100279.41;;;10.91;85.34
30724;BME280;17473;52.286;20.930;2023-03-21T10:22:58;100283.56;;;11.11;84.83
30724;BME280;17473;52.286;20.930;2023-03-21T10:25:39;100283.38;;;11.36;85.29
30724;BME280;17473;52.286;20.930;2023-03-21T10:28:21;100278.19;;;11.39;84.17
30724;BME280;17473;52.286;20.930;2023-03-21T10:31:23;100282.34;;;11.31;85.53
30724;BME280;17473;52.286;20.930;2023-03-21T10:33:58;100290.97;;;11.55;84.91
30724;BME280;17473;52.286;20.930;2023-03-21T10:36:31;100288.69;;;11.68;84.09
30724;BME280;17473;52.286;20.930;2023-03-21T10:39:05;100289.13;;;11.85;83.82
30724;BME280;17473;52.286;20.930;2023-03-21T10:41:33;100298.16;;;11.93;84.27
30724;BME280;17473;52.286;20.930;2023-03-21T10:44:16;100293.03;;;12.33;81.71
30724;BME280;17473;52.286;20.930;2023-03-21T10:47:06;100286.72;;;12.26;82.44
30724;BME280;17473;52.286;20.930;2023-03-21T10:49:38;100288.38;;;12.58;81.39
30724;BME280;17473;52.286;20.930;2023-03-21T10:52:27;100282.84;;;12.87;79.17
30724;BME280;17473;52.286;20.930;2023-03-21T10:55:32;100289.88;;;12.84;77.88
30724;BME280;17473;52.286;20.930;2023-03-21T10:58:09;100292.03;;;12.64;79.46
30724;BME280;17473;52.286;20.930;2023-03-21T11:00:45;100289.84;;;12.45;80.89
30724;BME280;17473;52.286;20.930;2023-03-21T11:03:42;100289.13;;;12.17;82.19
30724;BME280;17473;52.286;20.930;2023-03-21T11:06:26;100286.09;;;12.36;80.85
30724;BME280;17473;52.286;20.930;2023-03-21T11:09:02;100282.06;;;12.52;80.54
30724;BME280;17473;52.286;20.930;2023-03-21T11:11:53;100273.38;;;12.58;80.49
30724;BME280;17473;52.286;20.930;2023-03-21T11:14:38;100284.63;;;13.69;77.32
30724;BME280;17473;52.286;20.930;2023-03-21T11:17:20;100285.16;;;13.98;75.16
30724;BME280;17473;52.286;20.930;2023-03-21T11:19:56;100292.09;;;14.40;70.54
30724;BME280;17473;52.286;20.930;2023-03-21T11:22:36;100293.19;;;14.53;69.40
30724;BME280;17473;52.286;20.930;2023-03-21T11:25:08;100283.88;;;14.25;68.98
30724;BME280;17473;52.286;20.930;2023-03-21T11:27:52;100287.91;;;14.55;68.09
30724;BME280;17473;52.286;20.930;2023-03-21T11:30:27;100280.72;;;14.49;67.45
30724;BME280;17473;52.286;20.930;2023-03-21T11:32:57;100278.47;;;14.74;67.28
30724;BME280;17473;52.286;20.930;2023-03-21T11:35:35;100279.88;;;14.52;66.28
30724;BME280;17473;52.286;20.930;2023-03-21T11:38:04;100279.41;;;14.78;64.99
30724;BME280;17473;52.286;20.930;2023-03-21T11:40:35;100273.91;;;14.65;65.54
30724;BME280;17473;52.286;20.930;2023-03-21T11:48:24;100273.50;;;13.88;70.06
30724;BME280;17473;52.286;20.930;2023-03-21T11:51:02;100281.97;;;13.69;70.71
30724;BME280;17473;52.286;20.930;2023-03-21T11:56:49;100272.91;;;13.59;70.07
30724;BME280;17473;52.286;20.930;2023-03-21T12:10:54;100276.00;;;13.81;68.42
30724;BME280;17473;52.286;20.930;2023-03-21T12:17:05;100271.19;;;13.61;69.43
30724;BME280;17473;52.286;20.930;2023-03-21T12:19:58;100271.25;;;13.63;68.26
30724;BME280;17473;52.286;20.930;2023-03-21T12:22:44;100264.41;;;13.33;69.25
30724;BME280;17473;52.286;20.930;2023-03-21T12:26:03;100262.09;;;13.48;68.84
30724;BME280;17473;52.286;20.930;2023-03-21T12:46:02;100253.28;;;13.49;65.85
30724;BME280;17473;52.286;20.930;2023-03-21T12:48:44;100254.31;;;13.56;66.51
30724;BME280;17473;52.286;20.930;2023-03-21T12:51:18;100250.38;;;13.83;66.51
30724;BME280;17473;52.286;20.930;2023-03-21T13:01:58;100249.19;;;13.22;67.16
30724;BME280;17473;52.286;20.930;2023-03-21T13:04:53;100249.91;;;13.15;66.98
30724;BME280;17473;52.286;20.930;2023-03-21T13:07:28;100248.88;;;13.08;66.68
30724;BME280;17473;52.286;20.930;2023-03-21T13:09:57;100244.81;;;13.24;66.14
30724;BME280;17473;52.286;20.930;2023-03-21T13:12:39;100246.22;;;13.08;65.96
30724;BME280;17473;52.286;20.930;2023-03-21T13:20:49;100256.94;;;13.13;65.91
30724;BME280;17473;52.286;20.930;2023-03-21T13:23:21;100251.34;;;12.99;64.99
30724;BME280;17473;52.286;20.930;2023-03-21T13:25:50;100247.66;;;13.34;63.10
30724;BME280;17473;52.286;20.930;2023-03-21T13:28:32;100247.03;;;13.47;62.23
30724;BME280;17473;52.286;20.930;2023-03-21T13:31:22;100248.34;;;13.69;60.86
30724;BME280;17473;52.286;20.930;2023-03-21T13:33:53;100238.16;;;13.45;61.00
30724;BME280;17473;52.286;20.930;2023-03-21T13:36:29;100240.69;;;13.39;61.33
30724;BME280;17473;52.286;20.930;2023-03-21T13:39:03;100244.75;;;13.66;60.59
30724;BME280;17473;52.286;20.930;2023-03-21T13:41:37;100247.38;;;13.64;59.40
30724;BME280;17473;52.286;20.930;2023-03-21T13:44:21;100240.47;;;13.74;59.55
30724;BME280;17473;52.286;20.930;2023-03-21T13:47:03;100248.34;;;13.69;59.61
30724;BME280;17473;52.286;20.930;2023-03-21T13:49:36;100241.41;;;13.31;60.03
30724;BME280;17473;52.286;20.930;2023-03-21T13:57:05;100239.84;;;13.41;60.11
30724;BME280;17473;52.286;20.930;2023-03-21T13:59:43;100245.00;;;13.34;59.49
30724;BME280;17473;52.286;20.930;2023-03-21T14:04:40;100232.38;;;12.80;61.58
30724;BME280;17473;52.286;20.930;2023-03-21T14:07:35;100231.81;;;12.94;61.81
30724;BME280;17473;52.286;20.930;2023-03-21T14:10:18;100239.69;;;13.34;60.21
30724;BME280;17473;52.286;20.930;2023-03-21T14:12:46;100240.78;;;13.42;60.01
30724;BME280;17473;52.286;20.930;2023-03-21T14:15:25;100237.69;;;13.22;60.53
30724;BME280;17473;52.286;20.930;2023-03-21T14:17:59;100247.09;;;13.09;61.10
30724;BME280;17473;52.286;20.930;2023-03-21T14:20:57;100246.25;;;13.10;61.26
30724;BME280;17473;52.286;20.930;2023-03-21T14:23:25;100245.81;;;12.88;61.73
30724;BME280;17473;52.286;20.930;2023-03-21T14:25:52;100247.91;;;13.05;61.93
30724;BME280;17473;52.286;20.930;2023-03-21T14:28:27;100241.19;;;13.21;60.79
30724;BME280;17473;52.286;20.930;2023-03-21T14:30:59;100251.69;;;13.59;59.92
30724;BME280;17473;52.286;20.930;2023-03-21T14:33:38;100247.47;;;13.69;59.68
30724;BME280;17473;52.286;20.930;2023-03-21T14:36:17;100235.16;;;13.71;58.77
30724;BME280;17473;52.286;20.930;2023-03-21T14:39:21;100239.84;;;13.41;59.63
30724;BME280;17473;52.286;20.930;2023-03-21T14:41:55;100240.16;;;13.14;59.75
30724;BME280;17473;52.286;20.930;2023-03-21T14:44:38;100235.88;;;12.79;60.38
30724;BME280;17473;52.286;20.930;2023-03-21T14:47:26;100236.69;;;12.75;60.36
30724;BME280;17473;52.286;20.930;2023-03-21T14:49:55;100230.75;;;12.87;59.66
30724;BME280;17473;52.286;20.930;2023-03-21T14:52:32;100236.91;;;12.46;61.12